sensor_id;sensor_type;location;lat;lon;timestamp;temperature;humidity
1377;DHT22;682;52.502;13.488;2023-02-28T00:00:11;3.60;1.00
1377;DHT22;682;52.502;13.488;2023-02-28T00:02:39;3.50;1.00
1377;DHT22;682;52.502;13.488;2023-02-28T00:05:08;3.40;1.00
1377;DHT22;682;52.502;13.488;2023-02-28T00:07:36;3.30;1.00
1377;DHT22;682;52.502;13.488;2023-02-28T00:10:03;3.30;1.00
1377;DHT22;682;52.502;13.488;2023-02-28T00:12:32;3.30;1.00
1377;DHT22;682;52.502;13.488;2023-02-28T00:15:00;3.30;1.00
1377;DHT22;682;52.502;13.488;2023-02-28T00:17:27;3.20;1.00
1377;DHT22;682;52.502;13.488;2023-02-28T00:19:56;3.20;1.00
1377;DHT22;682;52.502;13.488;2023-02-28T00:22:27;3.10;1.00
1377;DHT22;682;52.502;13.488;2023-02-28T00:24:54;3.10;1.00
1377;DHT22;682;52.502;13.488;2023-02-28T00:27:21;3.00;1.00
1377;DHT22;682;52.502;13.488;2023-02-28T00:29:48;3.00;1.00
1377;DHT22;682;52.502;13.488;2023-02-28T00:32:17;3.00;1.00
1377;DHT22;682;52.502;13.488;2023-02-28T00:34:45;2.90;1.00
1377;DHT22;682;52.502;13.488;2023-02-28T00:37:12;2.90;1.00
1377;DHT22;682;52.502;13.488;2023-02-28T00:39:39;2.90;1.00
1377;DHT22;682;52.502;13.488;2023-02-28T00:42:10;2.90;1.00
1377;DHT22;682;52.502;13.488;2023-02-28T00:44:37;2.90;1.00
1377;DHT22;682;52.502;13.488;2023-02-28T00:47:04;2.90;1.00
1377;DHT22;682;52.502;13.488;2023-02-28T00:49:35;2.90;1.00
1377;DHT22;682;52.502;13.488;2023-02-28T00:52:03;2.90;1.00
1377;DHT22;682;52.502;13.488;2023-02-28T00:54:30;2.90;1.00
1377;DHT22;682;52.502;13.488;2023-02-28T00:56:56;2.90;1.00
1377;DHT22;682;52.502;13.488;2023-02-28T00:59:23;2.90;1.00
1377;DHT22;682;52.502;13.488;2023-02-28T01:01:50;2.90;1.00
1377;DHT22;682;52.502;13.488;2023-02-28T01:04:18;2.90;1.00
1377;DHT22;682;52.502;13.488;2023-02-28T01:06:46;3.00;1.00
1377;DHT22;682;52.502;13.488;2023-02-28T01:09:13;3.00;1.00
1377;DHT22;682;52.502;13.488;2023-02-28T01:11:42;3.00;1.00
1377;DHT22;682;52.502;13.488;2023-02-28T01:14:12;3.00;1.00
1377;DHT22;682;52.502;13.488;2023-02-28T01:16:40;2.90;1.00
1377;DHT22;682;52.502;13.488;2023-02-28T01:19:07;2.80;1.00
1377;DHT22;682;52.502;13.488;2023-02-28T01:21:34;2.80;1.00
1377;DHT22;682;52.502;13.488;2023-02-28T01:24:03;2.70;1.00
1377;DHT22;682;52.502;13.488;2023-02-28T01:26:31;2.70;1.00
1377;DHT22;682;52.502;13.488;2023-02-28T01:28:58;2.60;1.00
1377;DHT22;682;52.502;13.488;2023-02-28T01:31:25;2.60;1.00
1377;DHT22;682;52.502;13.488;2023-02-28T01:33:52;2.60;1.00
1377;DHT22;682;52.502;13.488;2023-02-28T01:36:22;2.50;1.00
1377;DHT22;682;52.502;13.488;2023-02-28T01:38:51;2.50;1.00
1377;DHT22;682;52.502;13.488;2023-02-28T01:41:21;2.50;1.00
1377;DHT22;682;52.502;13.488;2023-02-28T01:44:01;2.40;1.00
1377;DHT22;682;52.502;13.488;2023-02-28T01:46:32;2.30;1.00
1377;DHT22;682;52.502;13.488;2023-02-28T01:49:03;2.30;1.00
1377;DHT22;682;52.502;13.488;2023-02-28T01:51:35;2.20;1.00
1377;DHT22;682;52.502;13.488;2023-02-28T01:54:07;2.10;1.00
1377;DHT22;682;52.502;13.488;2023-02-28T01:56:43;2.00;1.00
1377;DHT22;682;52.502;13.488;2023-02-28T01:59:13;1.90;1.00
1377;DHT22;682;52.502;13.488;2023-02-28T02:01:40;1.90;1.00
1377;DHT22;682;52.502;13.488;2023-02-28T02:04:08;1.80;1.00
1377;DHT22;682;52.502;13.488;2023-02-28T02:06:39;1.70;1.00
1377;DHT22;682;52.502;13.488;2023-02-28T02:09:09;1.70;1.00
1377;DHT22;682;52.502;13.488;2023-02-28T02:11:37;1.70;1.00
1377;DHT22;682;52.502;13.488;2023-02-28T02:14:36;1.60;1.00
1377;DHT22;682;52.502;13.488;2023-02-28T02:17:14;1.60;1.00
1377;DHT22;682;52.502;13.488;2023-02-28T02:20:04;1.60;1.00
1377;DHT22;682;52.502;13.488;2023-02-28T02:23:02;1.60;1.00
1377;DHT22;682;52.502;13.488;2023-02-28T02:25:35;1.50;1.00
1377;DHT22;682;52.502;13.488;2023-02-28T02:34:29;1.40;1.00
1377;DHT22;682;52.502;13.488;2023-02-28T02:37:06;1.30;1.00
1377;DHT22;682;52.502;13.488;2023-02-28T02:39:40;1.30;1.00
1377;DHT22;682;52.502;13.488;2023-02-28T02:42:16;1.20;1.00
1377;DHT22;682;52.502;13.488;2023-02-28T02:44:49;1.20;1.00
1377;DHT22;682;52.502;13.488;2023-02-28T02:47:20;1.30;1.00
1377;DHT22;682;52.502;13.488;2023-02-28T02:49:53;1.30;1.00
1377;DHT22;682;52.502;13.488;2023-02-28T02:52:24;1.30;1.00
1377;DHT22;682;52.502;13.488;2023-02-28T02:54:55;1.30;1.00
1377;DHT22;682;52.502;13.488;2023-02-28T02:57:26;1.30;1.00
1377;DHT22;682;52.502;13.488;2023-02-28T02:59:56;1.30;1.00
1377;DHT22;682;52.502;13.488;2023-02-28T03:02:23;1.30;1.00
1377;DHT22;682;52.502;13.488;2023-02-28T03:04:56;1.40;1.00
1377;DHT22;682;52.502;13.488;2023-02-28T03:07:26;1.40;1.00
1377;DHT22;682;52.502;13.488;2023-02-28T03:09:55;1.50;1.00
1377;DHT22;682;52.502;13.488;2023-02-28T03:12:26;1.40;1.00
1377;DHT22;682;52.502;13.488;2023-02-28T03:15:05;1.40;1.00
1377;DHT22;682;52.502;13.488;2023-02-28T03:17:55;1.40;1.00
1377;DHT22;682;52.502;13.488;2023-02-28T03:20:35;1.30;1.00
1377;DHT22;682;52.502;13.488;2023-02-28T03:23:12;1.30;1.00
1377;DHT22;682;52.502;13.488;2023-02-28T03:25:52;1.30;1.00
1377;DHT22;682;52.502;13.488;2023-02-28T03:28:30;1.30;1.00
1377;DHT22;682;52.502;13.488;2023-02-28T03:31:01;1.30;1.00
1377;DHT22;682;52.502;13.488;2023-02-28T03:33:33;1.20;1.00
1377;DHT22;682;52.502;13.488;2023-02-28T03:36:07;1.20;1.00
1377;DHT22;682;52.502;13.488;2023-02-28T03:38:40;1.10;1.00
1377;DHT22;682;52.502;13.488;2023-02-28T03:41:14;1.00;1.00
1377;DHT22;682;52.502;13.488;2023-02-28T03:43:44;1.00;1.00
1377;DHT22;682;52.502;13.488;2023-02-28T03:46:17;1.00;1.00
1377;DHT22;682;52.502;13.488;2023-02-28T03:48:51;0.90;1.00
1377;DHT22;682;52.502;13.488;2023-02-28T03:51:23;0.90;1.00
1377;DHT22;682;52.502;13.488;2023-02-28T03:53:54;0.80;1.00
1377;DHT22;682;52.502;13.488;2023-02-28T03:56:26;0.80;1.00
1377;DHT22;682;52.502;13.488;2023-02-28T03:58:58;0.70;1.00
1377;DHT22;682;52.502;13.488;2023-02-28T04:01:31;0.70;1.00
1377;DHT22;682;52.502;13.488;2023-02-28T04:04:03;0.60;1.00
1377;DHT22;682;52.502;13.488;2023-02-28T04:06:32;0.60;1.00
1377;DHT22;682;52.502;13.488;2023-02-28T04:09:00;0.60;1.00
1377;DHT22;682;52.502;13.488;2023-02-28T04:11:31;0.60;1.00
1377;DHT22;682;52.502;13.488;2023-02-28T04:13:59;0.50;1.00
1377;DHT22;682;52.502;13.488;2023-02-28T04:16:26;0.50;1.00
1377;DHT22;682;52.502;13.488;2023-02-28T04:18:53;0.40;1.00
1377;DHT22;682;52.502;13.488;2023-02-28T04:21:27;0.30;1.00
1377;DHT22;682;52.502;13.488;2023-02-28T04:23:56;0.30;1.00
1377;DHT22;682;52.502;13.488;2023-02-28T04:26:28;0.30;1.00
1377;DHT22;682;52.502;13.488;2023-02-28T04:28:56;0.30;1.00
1377;DHT22;682;52.502;13.488;2023-02-28T04:31:24;0.30;1.00
1377;DHT22;682;52.502;13.488;2023-02-28T04:33:51;0.20;1.00
1377;DHT22;682;52.502;13.488;2023-02-28T04:36:19;0.20;1.00
1377;DHT22;682;52.502;13.488;2023-02-28T04:38:46;0.20;1.00
1377;DHT22;682;52.502;13.488;2023-02-28T04:41:15;0.10;1.00
1377;DHT22;682;52.502;13.488;2023-02-28T04:43:42;0.00;1.00
1377;DHT22;682;52.502;13.488;2023-02-28T04:46:09;0.00;1.00
1377;DHT22;682;52.502;13.488;2023-02-28T04:48:40;0.00;1.00
1377;DHT22;682;52.502;13.488;2023-02-28T04:51:09;-0.10;1.00
1377;DHT22;682;52.502;13.488;2023-02-28T04:53:37;-0.10;1.00
1377;DHT22;682;52.502;13.488;2023-02-28T04:56:05;-0.10;1.00
1377;DHT22;682;52.502;13.488;2023-02-28T04:58:34;-0.20;1.00
1377;DHT22;682;52.502;13.488;2023-02-28T05:01:02;-0.20;1.00
1377;DHT22;682;52.502;13.488;2023-02-28T05:03:30;-0.20;1.00
1377;DHT22;682;52.502;13.488;2023-02-28T05:05:57;-0.20;1.00
1377;DHT22;682;52.502;13.488;2023-02-28T05:08:24;-0.30;1.00
1377;DHT22;682;52.502;13.488;2023-02-28T05:10:50;-0.30;1.00
1377;DHT22;682;52.502;13.488;2023-02-28T05:13:20;-0.30;1.00
1377;DHT22;682;52.502;13.488;2023-02-28T05:15:50;-0.30;1.00
1377;DHT22;682;52.502;13.488;2023-02-28T05:18:17;-0.30;1.00
1377;DHT22;682;52.502;13.488;2023-02-28T05:20:43;-0.30;1.00
1377;DHT22;682;52.502;13.488;2023-02-28T05:23:13;-0.30;1.00
1377;DHT22;682;52.502;13.488;2023-02-28T05:25:40;-0.30;1.00
1377;DHT22;682;52.502;13.488;2023-02-28T05:28:07;-0.30;1.00
1377;DHT22;682;52.502;13.488;2023-02-28T05:30:34;-0.40;1.00
1377;DHT22;682;52.502;13.488;2023-02-28T05:33:03;-0.30;1.00
1377;DHT22;682;52.502;13.488;2023-02-28T05:35:30;-0.30;1.00
1377;DHT22;682;52.502;13.488;2023-02-28T05:37:57;-0.30;1.00
1377;DHT22;682;52.502;13.488;2023-02-28T05:40:24;-0.30;1.00
1377;DHT22;682;52.502;13.488;2023-02-28T05:42:51;-0.30;1.00
1377;DHT22;682;52.502;13.488;2023-02-28T05:45:18;-0.30;1.00
1377;DHT22;682;52.502;13.488;2023-02-28T05:47:45;-0.30;1.00
1377;DHT22;682;52.502;13.488;2023-02-28T05:50:14;-0.30;1.00
1377;DHT22;682;52.502;13.488;2023-02-28T05:52:41;-0.30;1.00
1377;DHT22;682;52.502;13.488;2023-02-28T05:55:08;-0.30;1.00
1377;DHT22;682;52.502;13.488;2023-02-28T05:57:35;-0.30;1.00
1377;DHT22;682;52.502;13.488;2023-02-28T06:00:03;-0.30;1.00
1377;DHT22;682;52.502;13.488;2023-02-28T06:02:30;-0.30;1.00
1377;DHT22;682;52.502;13.488;2023-02-28T06:04:57;-0.30;1.00
1377;DHT22;682;52.502;13.488;2023-02-28T06:07:25;-0.40;1.00
1377;DHT22;682;52.502;13.488;2023-02-28T06:09:53;-0.40;1.00
1377;DHT22;682;52.502;13.488;2023-02-28T06:12:20;-0.40;1.00
1377;DHT22;682;52.502;13.488;2023-02-28T06:14:48;-0.30;1.00
1377;DHT22;682;52.502;13.488;2023-02-28T06:17:15;-0.30;1.00
1377;DHT22;682;52.502;13.488;2023-02-28T06:19:42;-0.30;1.00
1377;DHT22;682;52.502;13.488;2023-02-28T06:22:09;-0.30;1.00
1377;DHT22;682;52.502;13.488;2023-02-28T06:24:37;-0.20;1.00
1377;DHT22;682;52.502;13.488;2023-02-28T06:27:06;-0.10;1.00
1377;DHT22;682;52.502;13.488;2023-02-28T06:29:33;-0.10;1.00
1377;DHT22;682;52.502;13.488;2023-02-28T06:32:01;0.00;1.00
1377;DHT22;682;52.502;13.488;2023-02-28T06:34:28;0.00;1.00
1377;DHT22;682;52.502;13.488;2023-02-28T06:36:56;0.00;1.00
1377;DHT22;682;52.502;13.488;2023-02-28T06:39:28;0.10;1.00
1377;DHT22;682;52.502;13.488;2023-02-28T06:41:56;0.20;1.00
1377;DHT22;682;52.502;13.488;2023-02-28T06:44:24;0.20;1.00
1377;DHT22;682;52.502;13.488;2023-02-28T06:46:51;0.20;1.00
1377;DHT22;682;52.502;13.488;2023-02-28T06:49:18;0.20;1.00
1377;DHT22;682;52.502;13.488;2023-02-28T06:51:45;0.20;1.00
1377;DHT22;682;52.502;13.488;2023-02-28T06:54:12;0.10;1.00
1377;DHT22;682;52.502;13.488;2023-02-28T06:56:39;0.20;1.00
1377;DHT22;682;52.502;13.488;2023-02-28T06:59:07;0.30;1.00
1377;DHT22;682;52.502;13.488;2023-02-28T07:01:35;0.40;1.00
1377;DHT22;682;52.502;13.488;2023-02-28T07:04:02;0.50;1.00
1377;DHT22;682;52.502;13.488;2023-02-28T07:06:29;0.60;1.00
1377;DHT22;682;52.502;13.488;2023-02-28T07:08:56;0.60;1.00
1377;DHT22;682;52.502;13.488;2023-02-28T07:11:24;0.80;1.00
1377;DHT22;682;52.502;13.488;2023-02-28T07:13:52;0.90;1.00
1377;DHT22;682;52.502;13.488;2023-02-28T07:16:22;1.10;1.00
1377;DHT22;682;52.502;13.488;2023-02-28T07:18:51;1.20;1.00
1377;DHT22;682;52.502;13.488;2023-02-28T07:21:18;1.30;1.00
1377;DHT22;682;52.502;13.488;2023-02-28T07:23:45;1.40;1.00
1377;DHT22;682;52.502;13.488;2023-02-28T07:26:14;1.50;1.00
1377;DHT22;682;52.502;13.488;2023-02-28T07:28:43;1.60;1.00
1377;DHT22;682;52.502;13.488;2023-02-28T07:31:10;1.60;1.00
1377;DHT22;682;52.502;13.488;2023-02-28T07:33:41;1.70;1.00
1377;DHT22;682;52.502;13.488;2023-02-28T07:36:13;1.80;1.00
1377;DHT22;682;52.502;13.488;2023-02-28T07:38:41;2.00;1.00
1377;DHT22;682;52.502;13.488;2023-02-28T07:41:09;2.10;1.00
1377;DHT22;682;52.502;13.488;2023-02-28T07:43:36;2.20;1.00
1377;DHT22;682;52.502;13.488;2023-02-28T07:46:07;2.30;1.00
1377;DHT22;682;52.502;13.488;2023-02-28T07:48:34;2.50;1.00
1377;DHT22;682;52.502;13.488;2023-02-28T07:51:06;2.60;1.00
1377;DHT22;682;52.502;13.488;2023-02-28T07:53:33;2.70;1.00
1377;DHT22;682;52.502;13.488;2023-02-28T07:56:01;2.80;1.00
1377;DHT22;682;52.502;13.488;2023-02-28T07:58:29;3.00;1.00
1377;DHT22;682;52.502;13.488;2023-02-28T08:00:56;3.10;1.00
1377;DHT22;682;52.502;13.488;2023-02-28T08:03:24;3.30;1.00
1377;DHT22;682;52.502;13.488;2023-02-28T08:05:51;3.40;1.00
1377;DHT22;682;52.502;13.488;2023-02-28T08:08:20;3.60;1.00
1377;DHT22;682;52.502;13.488;2023-02-28T08:10:48;3.70;1.00
1377;DHT22;682;52.502;13.488;2023-02-28T08:13:16;3.80;1.00
1377;DHT22;682;52.502;13.488;2023-02-28T08:15:43;3.90;1.00
1377;DHT22;682;52.502;13.488;2023-02-28T08:18:11;4.10;1.00
1377;DHT22;682;52.502;13.488;2023-02-28T08:20:38;4.10;1.00
1377;DHT22;682;52.502;13.488;2023-02-28T08:23:05;4.20;1.00
1377;DHT22;682;52.502;13.488;2023-02-28T08:25:33;4.30;1.00
1377;DHT22;682;52.502;13.488;2023-02-28T08:28:00;4.40;1.00
1377;DHT22;682;52.502;13.488;2023-02-28T08:30:27;4.50;1.00
1377;DHT22;682;52.502;13.488;2023-02-28T08:32:54;4.60;1.00
1377;DHT22;682;52.502;13.488;2023-02-28T08:35:23;4.70;1.00
1377;DHT22;682;52.502;13.488;2023-02-28T08:37:50;4.80;1.00
1377;DHT22;682;52.502;13.488;2023-02-28T08:40:17;4.80;1.00
1377;DHT22;682;52.502;13.488;2023-02-28T08:42:47;4.90;1.00
1377;DHT22;682;52.502;13.488;2023-02-28T08:45:15;5.00;1.00
1377;DHT22;682;52.502;13.488;2023-02-28T08:47:41;5.10;1.00
1377;DHT22;682;52.502;13.488;2023-02-28T08:50:09;5.20;1.00
1377;DHT22;682;52.502;13.488;2023-02-28T08:52:36;5.60;1.00
1377;DHT22;682;52.502;13.488;2023-02-28T08:55:04;6.40;1.00
1377;DHT22;682;52.502;13.488;2023-02-28T08:57:31;7.50;1.00
1377;DHT22;682;52.502;13.488;2023-02-28T09:00:00;8.30;1.00
1377;DHT22;682;52.502;13.488;2023-02-28T09:02:30;9.50;1.00
1377;DHT22;682;52.502;13.488;2023-02-28T09:04:57;10.90;1.00
1377;DHT22;682;52.502;13.488;2023-02-28T09:07:25;11.60;1.00
1377;DHT22;682;52.502;13.488;2023-02-28T09:09:53;12.30;1.00
1377;DHT22;682;52.502;13.488;2023-02-28T09:12:21;13.00;1.00
1377;DHT22;682;52.502;13.488;2023-02-28T09:14:48;14.00;1.00
1377;DHT22;682;52.502;13.488;2023-02-28T09:17:16;14.80;1.00
1377;DHT22;682;52.502;13.488;2023-02-28T09:19:44;15.20;1.00
1377;DHT22;682;52.502;13.488;2023-02-28T09:22:11;15.50;1.00
1377;DHT22;682;52.502;13.488;2023-02-28T09:24:38;15.90;1.00
1377;DHT22;682;52.502;13.488;2023-02-28T09:27:05;16.50;1.00
1377;DHT22;682;52.502;13.488;2023-02-28T09:29:34;17.00;1.00
1377;DHT22;682;52.502;13.488;2023-02-28T09:32:01;17.50;1.00
1377;DHT22;682;52.502;13.488;2023-02-28T09:34:29;17.60;1.00
1377;DHT22;682;52.502;13.488;2023-02-28T09:36:57;17.20;1.00
1377;DHT22;682;52.502;13.488;2023-02-28T09:39:24;16.70;1.00
1377;DHT22;682;52.502;13.488;2023-02-28T09:41:53;16.30;1.00
1377;DHT22;682;52.502;13.488;2023-02-28T09:44:26;16.20;1.00
1377;DHT22;682;52.502;13.488;2023-02-28T09:46:57;16.40;1.00
1377;DHT22;682;52.502;13.488;2023-02-28T09:49:33;16.20;1.00
1377;DHT22;682;52.502;13.488;2023-02-28T09:52:03;16.70;1.00
1377;DHT22;682;52.502;13.488;2023-02-28T09:54:35;17.60;1.00
1377;DHT22;682;52.502;13.488;2023-02-28T09:57:08;17.20;1.00
1377;DHT22;682;52.502;13.488;2023-02-28T09:59:45;16.30;1.00
1377;DHT22;682;52.502;13.488;2023-02-28T10:02:52;14.90;1.00
1377;DHT22;682;52.502;13.488;2023-02-28T10:05:27;14.60;1.00
1377;DHT22;682;52.502;13.488;2023-02-28T10:08:02;14.60;1.00
1377;DHT22;682;52.502;13.488;2023-02-28T10:10:37;14.20;1.00
1377;DHT22;682;52.502;13.488;2023-02-28T10:13:13;13.70;1.00
1377;DHT22;682;52.502;13.488;2023-02-28T10:15:42;13.70;1.00
1377;DHT22;682;52.502;13.488;2023-02-28T10:18:13;13.90;1.00
1377;DHT22;682;52.502;13.488;2023-02-28T10:20:43;14.50;1.00
1377;DHT22;682;52.502;13.488;2023-02-28T10:23:18;14.30;1.00
1377;DHT22;682;52.502;13.488;2023-02-28T10:25:54;13.50;1.00
1377;DHT22;682;52.502;13.488;2023-02-28T10:28:21;13.90;1.00
1377;DHT22;682;52.502;13.488;2023-02-28T10:30:50;14.20;1.00
1377;DHT22;682;52.502;13.488;2023-02-28T10:33:20;14.10;1.00
1377;DHT22;682;52.502;13.488;2023-02-28T10:35:50;14.60;1.00
1377;DHT22;682;52.502;13.488;2023-02-28T10:38:23;14.60;1.00
1377;DHT22;682;52.502;13.488;2023-02-28T10:40:51;15.10;1.00
1377;DHT22;682;52.502;13.488;2023-02-28T10:43:20;14.40;1.00
1377;DHT22;682;52.502;13.488;2023-02-28T10:45:58;14.00;1.00
1377;DHT22;682;52.502;13.488;2023-02-28T10:48:37;14.30;1.00
1377;DHT22;682;52.502;13.488;2023-02-28T10:51:09;14.50;1.00
1377;DHT22;682;52.502;13.488;2023-02-28T10:53:48;15.10;1.00
1377;DHT22;682;52.502;13.488;2023-02-28T10:56:20;15.70;1.00
1377;DHT22;682;52.502;13.488;2023-02-28T10:58:53;15.80;1.00
1377;DHT22;682;52.502;13.488;2023-02-28T11:01:23;15.80;1.00
1377;DHT22;682;52.502;13.488;2023-02-28T11:03:51;15.80;1.00
1377;DHT22;682;52.502;13.488;2023-02-28T11:06:22;16.70;1.00
1377;DHT22;682;52.502;13.488;2023-02-28T11:08:52;16.70;1.00
1377;DHT22;682;52.502;13.488;2023-02-28T11:11:21;17.20;1.00
1377;DHT22;682;52.502;13.488;2023-02-28T11:13:52;18.00;1.00
1377;DHT22;682;52.502;13.488;2023-02-28T11:16:20;18.80;1.00
1377;DHT22;682;52.502;13.488;2023-02-28T11:18:49;19.30;1.00
1377;DHT22;682;52.502;13.488;2023-02-28T11:21:23;17.60;1.00
1377;DHT22;682;52.502;13.488;2023-02-28T11:24:03;16.60;1.00
1377;DHT22;682;52.502;13.488;2023-02-28T11:26:39;16.90;1.00
1377;DHT22;682;52.502;13.488;2023-02-28T11:29:12;17.40;1.00
1377;DHT22;682;52.502;13.488;2023-02-28T11:31:39;18.10;1.00
1377;DHT22;682;52.502;13.488;2023-02-28T11:34:23;18.70;1.00
1377;DHT22;682;52.502;13.488;2023-02-28T11:36:57;18.80;1.00
1377;DHT22;682;52.502;13.488;2023-02-28T11:39:25;19.10;1.00
1377;DHT22;682;52.502;13.488;2023-02-28T11:42:04;19.60;1.00
1377;DHT22;682;52.502;13.488;2023-02-28T11:44:47;20.80;1.00
1377;DHT22;682;52.502;13.488;2023-02-28T11:47:26;22.20;1.00
1377;DHT22;682;52.502;13.488;2023-02-28T11:50:09;23.30;1.00
1377;DHT22;682;52.502;13.488;2023-02-28T11:52:47;22.50;1.00
1377;DHT22;682;52.502;13.488;2023-02-28T11:55:19;22.40;1.00
1377;DHT22;682;52.502;13.488;2023-02-28T11:58:04;21.80;1.00
1377;DHT22;682;52.502;13.488;2023-02-28T12:01:07;21.80;1.00
1377;DHT22;682;52.502;13.488;2023-02-28T12:03:44;21.70;1.00
1377;DHT22;682;52.502;13.488;2023-02-28T12:06:19;22.20;1.00
1377;DHT22;682;52.502;13.488;2023-02-28T12:08:58;22.10;1.00
1377;DHT22;682;52.502;13.488;2023-02-28T12:11:36;22.00;1.00
1377;DHT22;682;52.502;13.488;2023-02-28T12:14:31;22.90;1.00
1377;DHT22;682;52.502;13.488;2023-02-28T12:17:13;23.40;1.00
1377;DHT22;682;52.502;13.488;2023-02-28T12:19:48;23.50;1.00
1377;DHT22;682;52.502;13.488;2023-02-28T12:22:28;23.70;1.00
1377;DHT22;682;52.502;13.488;2023-02-28T12:28:09;22.30;1.00
1377;DHT22;682;52.502;13.488;2023-02-28T12:30:41;21.70;1.00
1377;DHT22;682;52.502;13.488;2023-02-28T12:33:13;21.60;1.00
1377;DHT22;682;52.502;13.488;2023-02-28T12:35:47;22.30;1.00
1377;DHT22;682;52.502;13.488;2023-02-28T12:38:21;23.70;1.00
1377;DHT22;682;52.502;13.488;2023-02-28T12:40:52;24.60;1.00
1377;DHT22;682;52.502;13.488;2023-02-28T12:43:25;25.00;1.00
1377;DHT22;682;52.502;13.488;2023-02-28T12:45:56;24.90;1.00
1377;DHT22;682;52.502;13.488;2023-02-28T12:48:29;24.50;1.00
1377;DHT22;682;52.502;13.488;2023-02-28T12:50:59;23.40;1.00
1377;DHT22;682;52.502;13.488;2023-02-28T12:53:30;22.10;1.00
1377;DHT22;682;52.502;13.488;2023-02-28T12:56:07;21.10;1.00
1377;DHT22;682;52.502;13.488;2023-02-28T12:58:39;20.50;1.00
1377;DHT22;682;52.502;13.488;2023-02-28T13:01:39;19.50;1.00
1377;DHT22;682;52.502;13.488;2023-02-28T13:04:51;18.70;1.00
1377;DHT22;682;52.502;13.488;2023-02-28T13:07:41;18.70;1.00
1377;DHT22;682;52.502;13.488;2023-02-28T13:10:10;18.70;1.00
1377;DHT22;682;52.502;13.488;2023-02-28T13:12:48;17.60;1.00
1377;DHT22;682;52.502;13.488;2023-02-28T13:15:21;16.20;1.00
1377;DHT22;682;52.502;13.488;2023-02-28T13:17:52;15.40;1.00
1377;DHT22;682;52.502;13.488;2023-02-28T13:20:21;15.30;1.00
1377;DHT22;682;52.502;13.488;2023-02-28T13:22:50;14.50;1.00
1377;DHT22;682;52.502;13.488;2023-02-28T13:25:51;14.40;1.00
1377;DHT22;682;52.502;13.488;2023-02-28T13:28:58;15.10;1.00
1377;DHT22;682;52.502;13.488;2023-02-28T13:31:27;16.10;1.00
1377;DHT22;682;52.502;13.488;2023-02-28T13:34:14;16.20;1.00
1377;DHT22;682;52.502;13.488;2023-02-28T13:36:43;16.20;1.00
1377;DHT22;682;52.502;13.488;2023-02-28T13:39:47;15.70;1.00
1377;DHT22;682;52.502;13.488;2023-02-28T13:42:33;16.00;1.00
1377;DHT22;682;52.502;13.488;2023-02-28T13:45:27;16.90;1.00
1377;DHT22;682;52.502;13.488;2023-02-28T13:47:59;15.60;1.00
1377;DHT22;682;52.502;13.488;2023-02-28T13:50:32;14.00;1.00
1377;DHT22;682;52.502;13.488;2023-02-28T13:56:07;12.10;1.00
1377;DHT22;682;52.502;13.488;2023-02-28T13:58:43;11.10;1.00
1377;DHT22;682;52.502;13.488;2023-02-28T14:01:27;10.60;1.00
1377;DHT22;682;52.502;13.488;2023-02-28T14:06:57;9.80;1.00
1377;DHT22;682;52.502;13.488;2023-02-28T14:09:27;9.50;1.00
1377;DHT22;682;52.502;13.488;2023-02-28T14:11:55;9.40;1.00
1377;DHT22;682;52.502;13.488;2023-02-28T14:17:29;9.10;1.00
1377;DHT22;682;52.502;13.488;2023-02-28T14:19:59;9.00;1.00
1377;DHT22;682;52.502;13.488;2023-02-28T14:22:52;8.90;1.00
1377;DHT22;682;52.502;13.488;2023-02-28T14:25:27;8.90;1.00
1377;DHT22;682;52.502;13.488;2023-02-28T14:28:08;8.80;1.00
1377;DHT22;682;52.502;13.488;2023-02-28T14:30:53;8.70;1.00
1377;DHT22;682;52.502;13.488;2023-02-28T14:33:44;8.70;1.00
1377;DHT22;682;52.502;13.488;2023-02-28T14:36:20;8.60;1.00
1377;DHT22;682;52.502;13.488;2023-02-28T14:38:52;8.60;1.00
1377;DHT22;682;52.502;13.488;2023-02-28T14:41:26;8.40;1.00
1377;DHT22;682;52.502;13.488;2023-02-28T14:43:57;8.10;1.00
1377;DHT22;682;52.502;13.488;2023-02-28T14:46:28;8.00;1.00
1377;DHT22;682;52.502;13.488;2023-02-28T14:48:58;7.90;1.00
1377;DHT22;682;52.502;13.488;2023-02-28T14:51:27;7.80;1.00
1377;DHT22;682;52.502;13.488;2023-02-28T14:53:59;7.70;1.00
1377;DHT22;682;52.502;13.488;2023-02-28T14:56:34;7.70;1.00
1377;DHT22;682;52.502;13.488;2023-02-28T14:59:02;7.60;1.00
1377;DHT22;682;52.502;13.488;2023-02-28T15:01:30;7.60;1.00
1377;DHT22;682;52.502;13.488;2023-02-28T15:04:01;7.60;1.00
1377;DHT22;682;52.502;13.488;2023-02-28T15:06:30;7.40;1.00
1377;DHT22;682;52.502;13.488;2023-02-28T15:09:08;7.40;1.00
1377;DHT22;682;52.502;13.488;2023-02-28T15:11:35;7.30;1.00
1377;DHT22;682;52.502;13.488;2023-02-28T15:14:04;7.30;1.00
1377;DHT22;682;52.502;13.488;2023-02-28T15:16:34;7.30;1.00
1377;DHT22;682;52.502;13.488;2023-02-28T15:19:03;7.20;1.00
1377;DHT22;682;52.502;13.488;2023-02-28T15:21:36;7.20;1.00
1377;DHT22;682;52.502;13.488;2023-02-28T15:24:08;7.10;1.00
1377;DHT22;682;52.502;13.488;2023-02-28T15:26:42;7.00;1.00
1377;DHT22;682;52.502;13.488;2023-02-28T15:29:13;6.90;1.00
1377;DHT22;682;52.502;13.488;2023-02-28T15:31:44;6.90;1.00
1377;DHT22;682;52.502;13.488;2023-02-28T15:34:19;6.80;1.00
1377;DHT22;682;52.502;13.488;2023-02-28T15:36:48;6.80;1.00
1377;DHT22;682;52.502;13.488;2023-02-28T15:39:23;6.70;1.00
1377;DHT22;682;52.502;13.488;2023-02-28T15:41:55;6.60;1.00
1377;DHT22;682;52.502;13.488;2023-02-28T15:44:36;6.60;1.00
1377;DHT22;682;52.502;13.488;2023-02-28T15:47:04;6.60;1.00
1377;DHT22;682;52.502;13.488;2023-02-28T15:49:39;6.60;1.00
1377;DHT22;682;52.502;13.488;2023-02-28T15:52:14;6.60;1.00
1377;DHT22;682;52.502;13.488;2023-02-28T15:54:45;6.50;1.00
1377;DHT22;682;52.502;13.488;2023-02-28T15:57:15;6.50;1.00
1377;DHT22;682;52.502;13.488;2023-02-28T15:59:50;6.50;1.00
1377;DHT22;682;52.502;13.488;2023-02-28T16:02:20;6.40;1.00
1377;DHT22;682;52.502;13.488;2023-02-28T16:05:19;6.30;1.00
1377;DHT22;682;52.502;13.488;2023-02-28T16:07:59;6.30;1.00
1377;DHT22;682;52.502;13.488;2023-02-28T16:10:28;6.20;1.00
1377;DHT22;682;52.502;13.488;2023-02-28T16:12:57;6.10;1.00
1377;DHT22;682;52.502;13.488;2023-02-28T16:15:26;6.10;1.00
1377;DHT22;682;52.502;13.488;2023-02-28T16:17:56;6.00;1.00
1377;DHT22;682;52.502;13.488;2023-02-28T16:20:27;5.90;1.00
1377;DHT22;682;52.502;13.488;2023-02-28T16:22:57;5.90;1.00
1377;DHT22;682;52.502;13.488;2023-02-28T16:25:29;5.90;1.00
1377;DHT22;682;52.502;13.488;2023-02-28T16:28:00;5.80;1.00
1377;DHT22;682;52.502;13.488;2023-02-28T16:30:29;5.80;1.00
1377;DHT22;682;52.502;13.488;2023-02-28T16:32:59;5.70;1.00
1377;DHT22;682;52.502;13.488;2023-02-28T16:35:26;5.60;1.00
1377;DHT22;682;52.502;13.488;2023-02-28T16:37:54;5.50;1.00
1377;DHT22;682;52.502;13.488;2023-02-28T16:40:23;5.50;1.00
1377;DHT22;682;52.502;13.488;2023-02-28T16:42:57;5.40;1.00
1377;DHT22;682;52.502;13.488;2023-02-28T16:45:28;5.30;1.00
1377;DHT22;682;52.502;13.488;2023-02-28T16:47:57;5.30;1.00
1377;DHT22;682;52.502;13.488;2023-02-28T16:50:25;5.20;1.00
1377;DHT22;682;52.502;13.488;2023-02-28T16:52:53;5.10;1.00
1377;DHT22;682;52.502;13.488;2023-02-28T16:55:22;5.10;1.00
1377;DHT22;682;52.502;13.488;2023-02-28T16:57:53;5.00;1.00
1377;DHT22;682;52.502;13.488;2023-02-28T17:00:24;5.00;1.00
1377;DHT22;682;52.502;13.488;2023-02-28T17:02:51;5.00;1.00
1377;DHT22;682;52.502;13.488;2023-02-28T17:05:22;4.90;1.00
1377;DHT22;682;52.502;13.488;2023-02-28T17:07:50;4.90;1.00
1377;DHT22;682;52.502;13.488;2023-02-28T17:10:19;4.80;1.00
1377;DHT22;682;52.502;13.488;2023-02-28T17:12:48;4.70;1.00